createdAt,value
2022-09-12T00:02:09.925Z,101160.97
2022-09-12T00:04:36.335Z,101173.19
2022-09-12T00:07:02.741Z,101169.66
2022-09-12T00:09:29.161Z,101173.13
2022-09-12T00:11:55.555Z,101173.97
2022-09-12T00:14:21.949Z,101172.19
2022-09-12T00:16:48.441Z,101180.06
2022-09-12T00:19:15.268Z,101174.81
2022-09-12T00:21:41.777Z,101171.28
2022-09-12T00:24:09.661Z,101170.41
2022-09-12T00:26:36.162Z,101172.16
2022-09-12T00:29:02.568Z,101164.34
2022-09-12T00:31:29.364Z,101168.72
2022-09-12T00:33:57.418Z,101169.59
2022-09-12T00:36:25.347Z,101170.44
2022-09-12T00:38:52.060Z,101166.06
2022-09-12T00:41:22.144Z,101170.41
2022-09-12T00:43:55.948Z,101166.03
2022-09-12T00:46:49.189Z,101157.28
2022-09-12T00:49:24.480Z,101164.28
2022-09-12T00:51:54.479Z,101159.06
2022-09-12T00:54:23.044Z,101167.81
2022-09-12T00:56:50.339Z,101162.59
2022-09-12T00:59:19.574Z,101164.28
2022-09-12T01:01:48.994Z,101172.13
2022-09-12T01:04:16.056Z,101163.41
2022-09-12T01:06:43.994Z,101161.69
2022-09-12T01:09:13.442Z,101159.06
2022-09-12T01:11:40.272Z,101147.72
2022-09-12T01:14:07.494Z,101158.16
2022-09-12T01:16:37.628Z,101148.53
2022-09-12T01:19:04.006Z,101134.50
2022-09-12T01:21:55.846Z,101135.44
2022-09-12T01:24:40.738Z,101137.09
2022-09-12T01:27:19.087Z,101141.44
2022-09-12T01:29:56.744Z,101147.56
2022-09-12T01:32:41.876Z,101144.91
2022-09-12T01:35:22.853Z,101132.72
2022-09-12T01:38:03.278Z,101148.44
2022-09-12T01:40:35.106Z,101135.34
2022-09-12T01:43:26.278Z,101138.81
2022-09-12T01:46:03.164Z,101139.63
2022-09-12T01:48:35.762Z,101130.88
2022-09-12T01:51:13.918Z,101125.63
2022-09-12T01:53:44.397Z,101129.91
2022-09-12T01:56:26.545Z,101121.13
2022-09-12T01:59:35.632Z,101123.69
2022-09-12T02:02:08.156Z,101126.25
2022-09-12T02:04:58.540Z,101125.31
2022-09-12T02:07:37.381Z,101121.75
2022-09-12T02:10:12.936Z,101111.19
2022-09-12T02:12:44.494Z,101123.34
2022-09-12T02:15:12.366Z,101113.72
2022-09-12T02:17:43.359Z,101113.66
2022-09-12T02:20:44.066Z,101108.41
2022-09-12T02:23:09.498Z,101108.34
2022-09-12T02:25:38.071Z,101107.47
2022-09-12T02:28:07.100Z,101098.66
2022-09-12T02:30:52.243Z,101099.47
2022-09-12T02:33:26.664Z,101104.59
2022-09-12T02:36:04.237Z,101105.41
2022-09-12T02:38:44.500Z,101106.16
2022-09-12T02:41:12.229Z,101104.38
2022-09-12T02:43:38.747Z,101107.81
2022-09-12T02:46:12.670Z,101113.88
2022-09-12T02:48:41.614Z,101107.75
2022-09-12T02:51:08.234Z,101110.25
2022-09-12T02:53:35.772Z,101110.16
2022-09-12T02:56:02.873Z,101107.47
2022-09-12T02:58:31.412Z,101111.75
2022-09-12T03:01:23.461Z,101102.13
2022-09-12T03:04:11.752Z,101098.59
2022-09-12T03:06:50.175Z,101105.47
2022-09-12T03:09:20.816Z,101101.94
2022-09-12T03:11:59.175Z,101097.56
2022-09-12T03:15:02.712Z,101094.84
2022-09-12T03:17:57.180Z,101095.63
2022-09-12T03:20:44.500Z,101092.06
2022-09-12T03:23:26.022Z,101093.75
2022-09-12T03:26:04.188Z,101093.69
2022-09-12T03:28:31.301Z,101087.56
2022-09-12T03:30:58.082Z,101090.19
2022-09-12T03:33:25.525Z,101089.31
2022-09-12T03:35:53.106Z,101093.59
2022-09-12T03:38:19.956Z,101095.28
2022-09-12T03:40:47.792Z,101096.03
2022-09-12T03:43:16.748Z,101099.44
2022-09-12T03:45:43.194Z,101107.25
2022-09-12T03:48:09.682Z,101100.25
2022-09-12T03:50:36.079Z,101100.19
2022-09-12T03:53:03.199Z,101106.22
2022-09-12T03:55:29.752Z,101100.91
2022-09-12T03:57:56.479Z,101099.16
2022-09-12T04:00:22.918Z,101095.69
2022-09-12T04:02:53.592Z,101100.03
2022-09-12T04:05:19.988Z,101101.78
2022-09-12T04:07:46.362Z,101109.56
2022-09-12T04:10:12.760Z,101097.31
2022-09-12T04:12:39.493Z,101104.19
2022-09-12T04:15:07.458Z,101108.44
2022-09-12T04:17:34.706Z,101105.75
2022-09-12T04:20:01.179Z,101110.97
2022-09-12T04:22:28.153Z,101106.56
2022-09-12T04:24:54.555Z,101116.13
2022-09-12T04:27:21.051Z,101112.59
2022-09-12T04:29:47.461Z,101109.03
2022-09-12T04:32:15.058Z,101108.13
2022-09-12T04:34:41.743Z,101100.22
2022-09-12T04:37:08.170Z,101104.44
2022-09-12T04:39:34.578Z,101106.13
2022-09-12T04:42:00.974Z,101105.25
2022-09-12T04:44:27.383Z,101108.75
2022-09-12T04:46:53.766Z,101109.59
2022-09-12T04:49:20.159Z,101111.28
2022-09-12T04:51:46.851Z,101117.38
2022-09-12T04:54:15.874Z,101121.72
2022-09-12T04:56:44.938Z,101125.16
2022-09-12T04:59:12.872Z,101121.63
2022-09-12T05:01:39.406Z,101124.19
2022-09-12T05:04:05.878Z,101123.31
2022-09-12T05:06:34.557Z,101117.13
2022-09-12T05:09:02.101Z,101126.69
2022-09-12T05:12:00.114Z,101123.31
2022-09-12T05:14:20.499Z,101125.09
2022-09-12T05:16:49.426Z,101131.22
2022-09-12T05:19:16.260Z,101129.53
2022-09-12T05:21:42.729Z,101128.69
2022-09-12T05:24:10.630Z,101127.00
2022-09-12T05:26:37.050Z,101126.16
2022-09-12T05:29:04.413Z,101125.31
2022-09-12T05:31:30.810Z,101131.53
2022-09-12T05:33:57.587Z,101128.13
2022-09-12T05:36:27.953Z,101124.72
2022-09-12T05:38:54.402Z,101131.78
2022-09-12T05:41:26.433Z,101133.66
2022-09-12T05:43:54.424Z,101138.16
2022-09-12T05:46:22.300Z,101140.00
2022-09-12T05:48:55.128Z,101139.19
2022-09-12T05:51:25.426Z,101141.06
2022-09-12T05:54:00.254Z,101145.47
2022-09-12T05:56:28.541Z,101151.69
2022-09-12T05:59:00.960Z,101154.50
2022-09-12T06:01:28.395Z,101154.66
2022-09-12T06:03:57.814Z,101157.34
2022-09-12T06:06:25.138Z,101153.94
2022-09-12T06:08:53.882Z,101150.50
2022-09-12T06:11:23.006Z,101148.00
2022-09-12T06:13:50.989Z,101148.91
2022-09-12T06:16:19.539Z,101148.13
2022-09-12T06:18:53.845Z,101142.19
2022-09-12T06:21:21.296Z,101149.19
2022-09-12T06:23:48.086Z,101151.94
2022-09-12T06:26:16.764Z,101150.34
2022-09-12T06:28:44.964Z,101154.78
2022-09-12T06:31:17.314Z,101150.50
2022-09-12T06:33:45.763Z,101150.69
2022-09-12T06:36:19.127Z,101148.09
2022-09-12T06:38:46.376Z,101152.50
2022-09-12T06:41:13.622Z,101149.94
2022-09-12T06:43:41.154Z,101149.09
2022-09-12T06:46:08.412Z,101148.28
2022-09-12T06:48:39.602Z,101147.47
2022-09-12T06:51:13.410Z,101139.72
2022-09-12T06:53:39.938Z,101142.50
2022-09-12T06:56:09.678Z,101136.63
2022-09-12T06:58:36.845Z,101137.72
2022-09-12T07:01:09.449Z,101131.81
2022-09-12T07:03:36.668Z,101129.38
2022-09-12T07:06:04.367Z,101126.03
2022-09-12T07:08:31.730Z,101126.25
2022-09-12T07:11:10.249Z,101125.56
2022-09-12T07:13:36.639Z,101132.78
2022-09-12T07:16:04.195Z,101128.50
2022-09-12T07:18:31.442Z,101132.03
2022-09-12T07:21:02.791Z,101130.41
2022-09-12T07:23:29.865Z,101134.09
2022-09-12T07:25:57.660Z,101129.00
2022-09-12T07:28:25.165Z,101130.91
2022-09-12T07:30:53.857Z,101127.53
2022-09-12T07:33:21.513Z,101132.03
2022-09-12T07:35:47.963Z,101131.28
2022-09-12T07:38:14.353Z,101131.44
2022-09-12T07:40:40.838Z,101125.38
2022-09-12T07:43:07.280Z,101122.88
2022-09-12T07:45:33.849Z,101120.34
2022-09-12T07:48:00.360Z,101128.31
2022-09-12T07:50:26.863Z,101126.69
2022-09-12T07:52:56.489Z,101120.63
2022-09-12T07:55:23.191Z,101132.19
2022-09-12T07:57:50.876Z,101124.38
2022-09-12T08:00:18.210Z,101121.03
2022-09-12T08:02:44.817Z,101122.00
2022-09-12T08:05:11.488Z,101129.13
2022-09-12T08:07:38.227Z,101136.16
2022-09-12T08:10:06.481Z,101137.19
2022-09-12T08:12:34.543Z,101131.97
2022-09-12T08:15:00.966Z,101128.63
2022-09-12T08:17:27.371Z,101131.31
2022-09-12T08:19:53.748Z,101141.00
2022-09-12T08:22:21.899Z,101143.75
2022-09-12T08:24:49.567Z,101140.31
2022-09-12T08:27:16.335Z,101142.16
2022-09-12T08:29:42.701Z,101150.13
2022-09-12T08:32:09.102Z,101146.75
2022-09-12T08:34:35.761Z,101138.94
2022-09-12T08:37:02.175Z,101141.66
2022-09-12T08:39:28.606Z,101141.66
2022-09-12T08:42:01.381Z,101138.25
2022-09-12T08:44:51.733Z,101134.81
2022-09-12T08:47:21.246Z,101132.25
2022-09-12T08:49:58.859Z,101129.66
2022-09-12T08:52:46.502Z,101126.16
2022-09-12T08:55:34.756Z,101130.63
2022-09-12T08:58:10.033Z,101128.06
2022-09-12T09:00:59.525Z,101129.03
2022-09-12T09:03:49.192Z,101129.97
2022-09-12T09:06:33.682Z,101128.31
2022-09-12T09:09:33.478Z,101121.34
2022-09-12T09:12:07.700Z,101119.56
2022-09-12T09:14:53.165Z,101123.09
2022-09-12T09:17:35.031Z,101121.44
2022-09-12T09:20:13.394Z,101112.75
2022-09-12T09:22:48.434Z,101107.56
2022-09-12T09:25:24.430Z,101106.72
2022-09-12T09:28:02.188Z,101112.00
2022-09-12T09:30:28.809Z,101113.81
2022-09-12T09:32:57.882Z,101108.56
2022-09-12T09:35:46.307Z,101110.34
2022-09-12T09:38:43.142Z,101115.69
2022-09-12T09:41:56.696Z,101107.00
2022-09-12T09:44:23.469Z,101098.28
2022-09-12T09:46:54.339Z,101102.72
2022-09-12T09:49:21.284Z,101100.09
2022-09-12T09:51:48.299Z,101101.03
2022-09-12T09:54:19.849Z,101097.53
2022-09-12T09:56:46.262Z,101097.53
2022-09-12T09:59:29.962Z,101089.63
2022-09-12T10:02:24.661Z,101091.38
2022-09-12T10:04:57.527Z,101088.75
2022-09-12T10:07:24.686Z,101087.00
2022-09-12T10:10:17.250Z,101082.72
2022-09-12T10:12:44.116Z,101082.72
2022-09-12T10:15:19.614Z,101081.03
2022-09-12T10:17:48.086Z,101075.78
2022-09-12T10:20:44.401Z,101070.53
2022-09-12T10:23:37.438Z,101070.59
2022-09-12T10:26:12.574Z,101074.09
2022-09-12T10:28:41.327Z,101072.38
2022-09-12T10:31:09.734Z,101069.78
2022-09-12T10:33:43.603Z,101073.28
2022-09-12T10:36:10.054Z,101067.19
2022-09-12T10:38:36.779Z,101061.03
2022-09-12T10:41:06.498Z,101060.19
2022-09-12T10:43:33.075Z,101061.94
2022-09-12T10:46:20.452Z,101063.69
2022-09-12T10:48:51.499Z,101054.91
2022-09-12T10:51:24.018Z,101057.53
2022-09-12T10:54:10.274Z,101058.41
2022-09-12T10:56:51.384Z,101043.44
2022-09-12T10:59:25.793Z,101049.56
2022-09-12T11:02:12.522Z,101049.56
2022-09-12T11:05:03.908Z,101038.09
2022-09-12T11:08:14.964Z,101047.81
2022-09-12T11:10:56.957Z,101042.50
2022-09-12T11:13:28.262Z,101047.78
2022-09-12T11:16:10.691Z,101038.97
2022-09-12T11:19:04.011Z,101034.56
2022-09-12T11:22:16.148Z,101037.16
2022-09-12T11:25:12.861Z,101036.25
2022-09-12T11:28:03.693Z,101024.72
2022-09-12T11:30:49.538Z,101028.25
2022-09-12T11:33:30.406Z,101022.91
2022-09-12T11:35:57.780Z,101023.78
2022-09-12T11:38:43.110Z,101027.28
2022-09-12T11:41:26.209Z,101022.88
2022-09-12T11:44:19.060Z,101018.47
2022-09-12T11:46:48.741Z,101017.59
2022-09-12T11:49:31.376Z,101015.91
2022-09-12T11:52:20.982Z,101014.97
2022-09-12T11:55:04.505Z,101019.34
2022-09-12T11:57:35.919Z,101010.56
2022-09-12T12:00:05.924Z,101012.28
2022-09-12T12:02:40.392Z,101004.34
2022-09-12T12:05:29.840Z,101009.63
2022-09-12T12:07:58.706Z,100999.00
2022-09-12T12:10:36.198Z,101005.19
2022-09-12T12:13:13.366Z,101002.50
2022-09-12T12:15:45.977Z,101002.47
2022-09-12T12:18:19.130Z,101000.69
2022-09-12T12:20:45.834Z,100998.06
2022-09-12T12:23:31.293Z,101001.50
2022-09-12T12:25:59.832Z,100997.09
2022-09-12T12:28:52.425Z,100997.97
2022-09-12T12:31:18.962Z,100994.44
2022-09-12T12:33:45.296Z,100990.00
2022-09-12T12:36:30.793Z,100987.38
2022-09-12T12:38:57.314Z,100990.03
2022-09-12T12:41:24.001Z,100984.72
2022-09-12T12:43:52.212Z,100982.06
2022-09-12T12:46:20.422Z,100982.13
2022-09-12T12:48:53.732Z,100978.59
2022-09-12T12:51:23.477Z,100971.53
2022-09-12T12:53:50.770Z,100972.38
2022-09-12T12:56:34.885Z,100976.72
2022-09-12T12:59:03.872Z,100967.00
2022-09-12T13:01:30.691Z,100964.31
2022-09-12T13:04:01.502Z,100957.19
2022-09-12T13:07:08.358Z,100958.00
2022-09-12T13:09:45.362Z,100953.59
2022-09-12T13:12:19.635Z,100951.78
2022-09-12T13:14:51.398Z,100942.91
2022-09-12T13:17:28.245Z,100941.06
2022-09-12T13:20:27.896Z,100941.00
2022-09-12T13:22:55.343Z,100940.13
2022-09-12T13:25:23.882Z,100938.34
2022-09-12T13:28:07.478Z,100933.91
2022-09-12T13:30:36.979Z,100930.34
2022-09-12T13:33:16.470Z,100932.09
2022-09-12T13:35:58.042Z,100925.91
2022-09-12T13:38:42.894Z,100918.81
2022-09-12T13:41:21.284Z,100916.09
2022-09-12T13:43:48.114Z,100915.25
2022-09-12T13:46:17.836Z,100916.06
2022-09-12T13:48:44.422Z,100914.25
2022-09-12T13:51:23.029Z,100916.84
2022-09-12T13:53:50.628Z,100915.94
2022-09-12T13:56:17.872Z,100908.91
2022-09-12T13:58:58.770Z,100908.91
2022-09-12T14:01:37.988Z,100903.59
2022-09-12T14:04:38.418Z,100908.03
2022-09-12T14:07:19.537Z,100898.34
2022-09-12T14:09:53.867Z,100898.34
2022-09-12T14:12:36.665Z,100892.22
2022-09-12T14:15:03.846Z,100893.09
2022-09-12T14:17:36.172Z,100887.81
2022-09-12T14:20:07.045Z,100891.34
2022-09-12T14:22:34.697Z,100881.66
2022-09-12T14:25:01.927Z,100883.41
2022-09-12T14:27:50.759Z,100887.81
2022-09-12T14:30:26.446Z,100889.56
2022-09-12T14:33:05.921Z,100886.88
2022-09-12T14:35:33.148Z,100875.34
2022-09-12T14:38:26.715Z,100881.47
2022-09-12T14:41:01.586Z,100878.78
2022-09-12T14:43:30.624Z,100877.81
2022-09-12T14:46:02.871Z,100872.44
2022-09-12T14:48:32.304Z,100870.66
2022-09-12T14:50:59.054Z,100866.19
2022-09-12T14:53:34.817Z,100870.56
2022-09-12T14:56:12.486Z,100859.13
2022-09-12T14:58:40.429Z,100867.84
2022-09-12T15:01:07.129Z,100867.81
2022-09-12T15:03:49.403Z,100860.75
2022-09-12T15:06:32.978Z,100858.16
2022-09-12T15:09:00.788Z,100851.09
2022-09-12T15:11:27.443Z,100849.31
2022-09-12T15:13:53.846Z,100852.84
2022-09-12T15:16:20.498Z,100848.47
2022-09-12T15:18:46.936Z,100843.22
2022-09-12T15:21:17.104Z,100850.28
2022-09-12T15:23:50.179Z,100845.06
2022-09-12T15:26:22.475Z,100840.69
2022-09-12T15:28:49.519Z,100837.13
2022-09-12T15:31:22.780Z,100841.56
2022-09-12T15:33:49.308Z,100828.31
2022-09-12T15:36:17.582Z,100838.03
2022-09-12T15:38:44.992Z,100839.78
2022-09-12T15:41:15.008Z,100832.72
2022-09-12T15:43:41.444Z,100830.09
2022-09-12T15:46:11.625Z,100828.31
2022-09-12T15:48:38.351Z,100838.91
2022-09-12T15:51:05.796Z,100837.13
2022-09-12T15:53:32.263Z,100831.84
2022-09-12T15:55:58.725Z,100828.25
2022-09-12T15:58:25.227Z,100821.16
2022-09-12T16:00:51.628Z,100825.50
2022-09-12T16:03:22.829Z,100816.66
2022-09-12T16:05:50.001Z,100818.44
2022-09-12T16:08:16.408Z,100815.78
2022-09-12T16:10:43.475Z,100810.50
2022-09-12T16:13:09.880Z,100814.00
2022-09-12T16:15:37.635Z,100808.72
2022-09-12T16:18:04.130Z,100806.16
2022-09-12T16:20:30.528Z,100805.28
2022-09-12T16:22:56.923Z,100801.78
2022-09-12T16:25:23.338Z,100804.50
2022-09-12T16:27:50.000Z,100801.94
2022-09-12T16:30:16.476Z,100806.44
2022-09-12T16:32:42.897Z,100799.41
2022-09-12T16:35:09.736Z,100799.41
2022-09-12T16:37:36.469Z,100791.53
2022-09-12T16:40:04.089Z,100788.06
2022-09-12T16:42:30.737Z,100791.69
2022-09-12T16:44:57.133Z,100786.41
2022-09-12T16:47:23.527Z,100779.31
2022-09-12T16:49:51.164Z,100773.16
2022-09-12T16:52:17.621Z,100772.94
2022-09-12T16:54:46.804Z,100770.84
2022-09-12T16:57:13.199Z,100772.44
2022-09-12T16:59:39.657Z,100770.66
2022-09-12T17:02:06.356Z,100766.44
2022-09-12T17:04:32.886Z,100765.72
2022-09-12T17:06:59.569Z,100764.16
2022-09-12T17:09:27.377Z,100768.72
2022-09-12T17:11:53.797Z,100766.22
2022-09-12T17:14:20.209Z,100769.00
2022-09-12T17:16:51.504Z,100777.06
2022-09-12T17:19:26.443Z,100771.06
2022-09-12T17:21:53.408Z,100769.38
2022-09-12T17:24:20.136Z,100766.81
2022-09-12T17:26:46.561Z,100768.72
2022-09-12T17:29:13.924Z,100772.38
2022-09-12T17:31:41.240Z,100777.72
2022-09-12T17:34:07.994Z,100771.66
2022-09-12T17:36:34.489Z,100770.03
2022-09-12T17:39:03.594Z,100773.63
2022-09-12T17:41:31.850Z,100767.50
2022-09-12T17:43:59.662Z,100769.34
2022-09-12T17:46:32.835Z,100767.66
2022-09-12T17:49:00.905Z,100761.53
2022-09-12T17:51:30.575Z,100758.09
2022-09-12T17:54:05.471Z,100759.91
2022-09-12T17:56:33.231Z,100760.00
2022-09-12T17:58:59.954Z,100763.53
2022-09-12T18:01:45.509Z,100757.44
2022-09-12T18:04:12.163Z,100757.47
2022-09-12T18:06:39.989Z,100762.78
2022-09-12T18:09:08.477Z,100762.81
2022-09-12T18:11:35.435Z,100765.44
2022-09-12T18:14:02.597Z,100762.84
2022-09-12T18:16:29.002Z,100757.63
2022-09-12T18:18:55.547Z,100758.50
2022-09-12T18:21:22.011Z,100756.78
2022-09-12T18:23:48.421Z,100763.84
2022-09-12T18:26:14.979Z,100758.56
2022-09-12T18:28:42.756Z,100754.22
2022-09-12T18:31:15.272Z,100760.38
2022-09-12T18:33:42.134Z,100749.84
2022-09-12T18:36:10.624Z,100747.25
2022-09-12T18:38:37.630Z,100748.16
2022-09-12T18:41:18.308Z,100748.19
2022-09-12T18:43:45.101Z,100740.34
2022-09-12T18:46:13.423Z,100750.88
2022-09-12T18:48:40.031Z,100741.22
2022-09-12T18:51:09.839Z,100743.00
2022-09-12T18:53:36.981Z,100751.81
2022-09-12T18:56:08.627Z,100746.50
2022-09-12T18:58:40.497Z,100751.78
2022-09-12T19:01:16.006Z,100750.06
2022-09-12T19:03:42.770Z,100743.91
2022-09-12T19:06:17.654Z,100745.69
2022-09-12T19:08:44.565Z,100743.06
2022-09-12T19:11:11.311Z,100740.44
2022-09-12T19:13:39.714Z,100739.56
2022-09-12T19:16:09.292Z,100736.03
2022-09-12T19:18:37.004Z,100726.41
2022-09-12T19:21:13.842Z,100724.66
2022-09-12T19:23:40.349Z,100729.94
2022-09-12T19:26:08.563Z,100729.94
2022-09-12T19:28:35.374Z,100720.31
2022-09-12T19:31:09.991Z,100722.97
2022-09-12T19:33:36.862Z,100726.47
2022-09-12T19:36:27.290Z,100722.06
2022-09-12T19:38:55.451Z,100723.84
2022-09-12T19:41:21.916Z,100724.72
2022-09-12T19:43:48.333Z,100719.47
2022-09-12T19:46:17.250Z,100714.19
2022-09-12T19:48:44.853Z,100723.84
2022-09-12T19:51:11.849Z,100724.75
2022-09-12T19:53:38.347Z,100716.84
2022-09-12T19:56:05.798Z,100725.56
2022-09-12T19:58:35.514Z,100718.56
2022-09-12T20:01:14.352Z,100717.69
2022-09-12T20:03:41.187Z,100716.81
2022-09-12T20:06:09.751Z,100722.94
2022-09-12T20:08:45.639Z,100715.94
2022-09-12T20:11:13.898Z,100710.69
2022-09-12T20:13:41.139Z,100706.31
2022-09-12T20:16:21.698Z,100705.41
2022-09-12T20:18:55.976Z,100698.41
2022-09-12T20:21:25.256Z,100702.78
2022-09-12T20:23:51.928Z,100702.78
2022-09-12T20:26:20.175Z,100707.16
2022-09-12T20:28:46.677Z,100701.88
2022-09-12T20:31:15.695Z,100702.78
2022-09-12T20:33:42.836Z,100692.25
2022-09-12T20:36:16.073Z,100696.66
2022-09-12T20:38:47.485Z,100700.13
2022-09-12T20:41:13.936Z,100698.38
2022-09-12T20:43:40.841Z,100687.88
2022-09-12T20:46:09.783Z,100687.88
2022-09-12T20:48:37.005Z,100679.09
2022-09-12T20:51:03.903Z,100684.34
2022-09-12T20:53:34.708Z,100679.94
2022-09-12T20:56:01.920Z,100680.81
2022-09-12T20:58:28.320Z,100672.06
2022-09-12T21:00:54.749Z,100672.06
2022-09-12T21:03:21.160Z,100677.34
2022-09-12T21:05:47.607Z,100672.03
2022-09-12T21:08:14.318Z,100672.91
2022-09-12T21:10:42.045Z,100662.38
2022-09-12T21:13:10.253Z,100660.63
2022-09-12T21:15:38.510Z,100652.72
2022-09-12T21:18:05.348Z,100643.94
2022-09-12T21:20:32.434Z,100649.19
2022-09-12T21:22:59.099Z,100646.56
2022-09-12T21:25:25.559Z,100644.78
2022-09-12T21:27:51.974Z,100647.41
2022-09-12T21:30:18.371Z,100652.66
2022-09-12T21:32:44.826Z,100655.28
2022-09-12T21:35:11.279Z,100648.28
2022-09-12T21:37:37.732Z,100642.16
2022-09-12T21:40:04.448Z,100645.63
2022-09-12T21:42:31.711Z,100636.00
2022-09-12T21:44:58.116Z,100643.00
2022-09-12T21:47:24.645Z,100638.63
2022-09-12T21:49:51.052Z,100637.75
2022-09-12T21:52:17.439Z,100638.63
2022-09-12T21:54:43.850Z,100633.31
2022-09-12T21:57:10.228Z,100633.31
2022-09-12T21:59:36.666Z,100630.69
2022-09-12T22:02:03.135Z,100622.81
2022-09-12T22:04:30.853Z,100626.31
2022-09-12T22:06:57.494Z,100620.19
2022-09-12T22:09:23.883Z,100621.91
2022-09-12T22:11:50.298Z,100612.25
2022-09-12T22:14:17.469Z,100614.88
2022-09-12T22:16:43.988Z,100614.00
2022-09-12T22:19:10.369Z,100621.88
2022-09-12T22:21:56.719Z,100625.34
2022-09-12T22:24:29.488Z,100618.31
2022-09-12T22:26:57.366Z,100619.19
2022-09-12T22:29:23.756Z,100611.31
2022-09-12T22:31:50.345Z,100605.16
2022-09-12T22:34:16.874Z,100599.88
2022-09-12T22:36:43.820Z,100600.72
2022-09-12T22:39:10.216Z,100595.47
2022-09-12T22:41:36.602Z,100590.22
2022-09-12T22:44:03.093Z,100584.06
2022-09-12T22:46:30.442Z,100585.78
2022-09-12T22:48:56.907Z,100586.66
2022-09-12T22:51:23.542Z,100584.91
2022-09-12T22:53:49.974Z,100582.22
2022-09-12T22:56:16.364Z,100577.84
2022-09-12T22:58:43.489Z,100570.84
2022-09-12T23:01:10.758Z,100570.84
2022-09-12T23:03:37.451Z,100563.84
2022-09-12T23:06:04.607Z,100570.84
2022-09-12T23:08:31.093Z,100568.16
2022-09-12T23:11:09.393Z,100563.78
2022-09-12T23:13:37.001Z,100570.78
2022-09-12T23:16:05.950Z,100555.91
2022-09-12T23:18:35.410Z,100559.41
2022-09-12T23:21:04.592Z,100547.97
2022-09-12T23:23:31.301Z,100547.09
2022-09-12T23:26:14.009Z,100540.97
2022-09-12T23:28:41.645Z,100548.84
2022-09-12T23:31:09.656Z,100543.56
2022-09-12T23:33:36.245Z,100541.81
2022-09-12T23:36:07.942Z,100535.66
2022-09-12T23:38:35.507Z,100529.53
2022-09-12T23:41:03.300Z,100526.91
2022-09-12T23:43:30.316Z,100518.16
2022-09-12T23:45:57.740Z,100517.28
2022-09-12T23:48:24.241Z,100516.41
2022-09-12T23:50:50.673Z,100519.88
2022-09-12T23:53:17.622Z,100511.09
2022-09-12T23:55:44.851Z,100519.84
2022-09-12T23:58:11.853Z,100504.97
